Time;durP1;ratioP1;P1;durP2;ratioP2;P2;SDS_P1;SDS_P2;PMS_P1;PMS_P2;Temp;Humidity;BMP_temperature;BMP_pressure;BME280_temperature;BME280_humidity;BME280_pressure;Samples;Min_cycle;Max_cycle;Signal;HPM_P1;HPM_P2
2022/11/09 00:01:04;;;;;;;18.62;13.55;;;;;;;5.79;68.54;100082.19;1758617;81;21025;-40
2022/11/09 00:03:31;;;;;;;18.80;13.03;;;;;;;5.78;68.39;100074.66;1758811;81;21038;-40
2022/11/09 00:05:58;;;;;;;17.05;13.10;;;;;;;5.82;68.30;100081.55;1758591;81;21046;-40
2022/11/09 00:08:27;;;;;;;18.47;13.60;;;;;;;5.85;68.17;100080.95;1758886;81;21494;-40
2022/11/09 00:10:54;;;;;;;16.35;13.15;;;;;;;5.81;68.33;100082.68;1758900;81;21017;-40
2022/11/09 00:13:22;;;;;;;18.73;13.43;;;;;;;5.78;68.62;100081.94;1758592;81;21570;-40
2022/11/09 00:15:49;;;;;;;17.57;12.45;;;;;;;5.79;68.47;100074.91;1758481;81;21812;-40
2022/11/09 00:18:16;;;;;;;17.65;12.98;;;;;;;5.80;68.24;100078.39;1758592;81;21070;-40
2022/11/09 00:20:43;;;;;;;19.30;14.45;;;;;;;5.78;67.95;100077.34;1758549;81;21216;-40
2022/11/09 00:23:10;;;;;;;17.60;13.58;;;;;;;5.76;67.71;100083.58;1758631;81;20994;-40
2022/11/09 00:25:38;;;;;;;18.98;13.20;;;;;;;5.73;67.75;100080.72;1758534;81;21097;-40
2022/11/09 00:28:05;;;;;;;14.53;11.30;;;;;;;5.65;68.01;100080.94;1758826;81;21484;-40
2022/11/09 00:30:32;;;;;;;16.00;11.63;;;;;;;5.66;68.16;100090.02;1758713;81;21027;-40
2022/11/09 00:32:59;;;;;;;17.23;13.28;;;;;;;5.72;67.92;100089.89;1758813;81;21141;-40
2022/11/09 00:35:27;;;;;;;15.78;12.45;;;;;;;5.75;67.80;100093.33;1758608;81;20903;-40
2022/11/09 00:37:55;;;;;;;17.98;12.68;;;;;;;5.72;67.77;100088.55;1758720;81;21010;-40
2022/11/09 00:40:22;;;;;;;15.10;12.60;;;;;;;5.66;68.07;100091.37;1758535;81;21025;-40
2022/11/09 00:42:48;;;;;;;16.32;12.60;;;;;;;5.67;68.07;100093.51;1758615;81;21049;-40
2022/11/09 00:45:16;;;;;;;16.42;12.40;;;;;;;5.68;67.81;100087.03;1758488;81;21204;-40
2022/11/09 00:47:43;;;;;;;19.07;12.63;;;;;;;5.67;67.72;100087.58;1758577;81;20969;-40
2022/11/09 00:50:10;;;;;;;16.67;13.58;;;;;;;5.65;67.74;100088.45;1758659;81;21022;-40
2022/11/09 00:52:37;;;;;;;15.10;12.35;;;;;;;5.66;67.74;100093.29;1758648;81;21025;-40
2022/11/09 00:55:06;;;;;;;19.70;13.50;;;;;;;5.64;67.76;100093.59;1758569;81;21020;-40
2022/11/09 00:57:33;;;;;;;14.87;11.45;;;;;;;5.63;67.87;100093.34;1758572;81;21119;-40
2022/11/09 01:00:00;;;;;;;17.55;11.78;;;;;;;5.65;67.91;100093.84;1758495;81;21017;-40
2022/11/09 01:02:27;;;;;;;14.70;11.35;;;;;;;5.73;67.81;100094.97;1758719;81;21010;-40
2022/11/09 01:04:57;;;;;;;16.10;12.73;;;;;;;5.81;67.66;100093.44;1758418;81;21391;-40
2022/11/09 01:07:25;;;;;;;17.50;13.18;;;;;;;5.82;67.66;100086.38;1758586;81;21054;-40
2022/11/09 01:09:52;;;;;;;17.52;12.88;;;;;;;5.82;67.58;100082.89;1758609;81;21241;-40
2022/11/09 01:12:19;;;;;;;19.67;12.93;;;;;;;5.80;67.46;100081.88;1758766;81;21048;-40
2022/11/09 01:14:47;;;;;;;17.85;12.45;;;;;;;5.78;67.41;100085.97;1758556;81;20962;-40
2022/11/09 01:17:14;;;;;;;17.00;12.85;;;;;;;5.79;67.31;100086.22;1758532;81;21397;-40
2022/11/09 01:19:41;;;;;;;16.42;13.13;;;;;;;5.76;67.01;100087.61;1758642;81;21054;-40
2022/11/09 01:22:08;;;;;;;18.37;13.45;;;;;;;5.73;66.99;100083.41;1758643;81;21159;-40
2022/11/09 01:24:35;;;;;;;20.72;14.18;;;;;;;5.71;67.13;100081.59;1758424;81;21490;-40
2022/11/09 01:27:02;;;;;;;17.77;12.33;;;;;;;5.66;67.22;100085.98;1758512;81;21515;-40
2022/11/09 01:29:30;;;;;;;17.45;12.25;;;;;;;5.65;67.29;100081.73;1758575;81;20926;-40
2022/11/09 01:31:57;;;;;;;14.25;10.78;;;;;;;5.71;67.35;100090.47;1758564;81;21101;-40
2022/11/09 01:34:26;;;;;;;15.55;11.10;;;;;;;5.75;67.15;100089.29;1758641;81;21301;-40
2022/11/09 01:36:54;;;;;;;15.00;11.83;;;;;;;5.75;67.33;100087.95;1728672;81;21009;-40
2022/11/09 01:39:22;;;;;;;17.65;12.55;;;;;;;5.76;67.38;100088.19;1758524;81;21090;-40
2022/11/09 01:41:49;;;;;;;14.87;11.63;;;;;;;5.75;67.70;100093.33;1758553;81;21515;-40
2022/11/09 01:44:19;;;;;;;14.95;11.68;;;;;;;5.75;67.62;100089.29;1758529;81;21018;-40
2022/11/09 01:47:00;;;;;;;16.65;12.33;;;;;;;5.72;67.22;100091.23;1758524;81;21864;-40
2022/11/09 01:49:40;;;;;;;;;;;;;;;5.70;67.12;100092.91;1761076;81;21042;-40
2022/11/09 01:52:19;;;;;;;14.93;12.78;;;;;;;5.66;66.99;100095.40;1758634;81;20483;-40
2022/11/09 01:54:51;;;;;;;13.22;11.55;;;;;;;5.52;67.19;100089.31;1758556;81;20998;-40
2022/11/09 01:57:24;;;;;;;15.60;11.97;;;;;;;5.50;67.09;100090.19;1758733;81;21037;-40
2022/11/09 01:59:56;;;;;;;14.15;10.63;;;;;;;5.47;67.03;100090.78;1758406;81;21121;-40
2022/11/09 02:02:23;;;;;;;14.45;10.35;;;;;;;5.47;66.96;100089.44;1758467;81;20982;-40
2022/11/09 02:04:59;;;;;;;13.20;10.65;;;;;;;5.50;66.88;100086.16;1758602;81;21043;-40
2022/11/09 02:07:25;;;;;;;14.25;10.70;;;;;;;5.55;66.77;100084.69;1758693;81;21689;-40
2022/11/09 02:10:09;;;;;;;15.45;10.90;;;;;;;5.55;66.69;100085.23;1758625;81;21030;-40
2022/11/09 02:12:37;;;;;;;14.78;11.97;;;;;;;5.57;66.69;100089.73;1758376;81;20978;-40
2022/11/09 02:15:08;;;;;;;14.58;12.10;;;;;;;5.56;66.61;100083.59;1758460;81;20994;-40
2022/11/09 02:17:35;;;;;;;16.67;12.70;;;;;;;5.56;66.48;100086.83;1758839;81;21559;-40
2022/11/09 02:20:11;;;;;;;17.52;12.78;;;;;;;5.54;66.29;100092.50;1758412;81;21089;-40
2022/11/09 02:22:40;;;;;;;14.47;12.15;;;;;;;5.50;66.47;100098.26;1758564;81;21077;-40
2022/11/09 02:25:09;;;;;;;15.65;12.78;;;;;;;5.47;66.67;100094.05;1758589;81;21136;-40
2022/11/09 02:27:38;;;;;;;16.73;12.50;;;;;;;5.43;66.93;100099.23;1729146;81;20931;-40
2022/11/09 02:30:07;;;;;;;16.25;10.80;;;;;;;5.38;66.78;100093.97;1728988;81;21071;-40
2022/11/09 02:32:35;;;;;;;12.33;10.18;;;;;;;5.38;66.67;100091.28;1758605;81;20975;-40
2022/11/09 02:35:03;;;;;;;13.62;10.75;;;;;;;5.44;66.63;100090.61;1758579;81;21093;-40
2022/11/09 02:37:48;;;;;;;11.70;10.50;;;;;;;5.49;66.51;100093.17;1758660;81;21143;-40
2022/11/09 02:40:32;;;;;;;14.35;11.85;;;;;;;5.47;66.31;100089.44;1758488;81;21513;-40
2022/11/09 02:43:00;;;;;;;14.07;11.48;;;;;;;5.45;66.27;100091.66;1758460;81;21050;-40
2022/11/09 02:45:26;;;;;;;13.95;11.50;;;;;;;5.44;66.24;100087.92;1758719;81;21021;-40
2022/11/09 02:47:54;;;;;;;18.25;11.73;;;;;;;5.44;66.36;100086.03;1758676;81;20966;-40
2022/11/09 02:50:21;;;;;;;14.85;11.45;;;;;;;5.43;66.29;100089.81;1758533;81;23110;-40
2022/11/09 02:52:48;;;;;;;14.25;11.90;;;;;;;5.40;66.16;100090.44;1758462;81;21506;-40
2022/11/09 02:55:15;;;;;;;18.42;12.40;;;;;;;5.37;66.13;100090.27;1758724;81;21057;-40
2022/11/09 02:57:43;;;;;;;15.00;12.50;;;;;;;5.32;66.38;100089.84;1759848;81;20982;-40
2022/11/09 03:00:12;;;;;;;16.40;13.28;;;;;;;5.27;66.45;100087.83;1761635;81;21085;-40
2022/11/09 03:02:39;;;;;;;16.77;11.65;;;;;;;5.23;67.06;100095.69;1761964;81;21111;-40
2022/11/09 03:05:07;;;;;;;15.68;12.45;;;;;;;5.24;67.25;100091.36;1761665;81;21085;-40
2022/11/09 03:07:36;;;;;;;18.20;13.32;;;;;;;5.29;67.21;100095.81;1761847;81;21488;-40
2022/11/09 03:10:06;;;;;;;16.77;13.25;;;;;;;5.31;67.79;100099.55;1761681;81;21058;-40
2022/11/09 03:12:33;;;;;;;21.02;14.35;;;;;;;5.31;68.08;100097.66;1761938;81;20950;-40
2022/11/09 03:15:08;;;;;;;19.15;14.35;;;;;;;5.33;68.22;100100.81;1761111;81;20962;-40
2022/11/09 03:17:36;;;;;;;19.85;14.68;;;;;;;5.33;68.33;100099.47;1762005;81;21523;-40
2022/11/09 03:20:05;;;;;;;17.80;13.88;;;;;;;5.32;68.49;100093.88;1761675;81;20938;-40
2022/11/09 03:22:33;;;;;;;16.57;13.58;;;;;;;5.32;68.42;100094.42;1761984;81;21026;-40
2022/11/09 03:25:00;;;;;;;18.45;14.85;;;;;;;5.31;68.07;100098.20;1761646;81;21543;-40
2022/11/09 03:27:27;;;;;;;15.78;12.25;;;;;;;5.29;68.11;100099.84;1761635;81;21250;-40
2022/11/09 03:29:54;;;;;;;15.28;12.23;;;;;;;5.34;67.83;100101.07;1761565;81;21010;-40
2022/11/09 03:32:21;;;;;;;17.52;12.82;;;;;;;5.38;67.88;100102.04;1761582;81;21483;-40
2022/11/09 03:34:50;;;;;;;16.75;13.13;;;;;;;5.46;67.96;100097.83;1761388;81;20941;-40
2022/11/09 03:37:18;;;;;;;16.80;13.53;;;;;;;5.47;68.01;100100.77;1761630;81;21080;-40
2022/11/09 03:39:45;;;;;;;18.40;13.45;;;;;;;5.47;67.97;100100.77;1761541;81;21509;-40
2022/11/09 03:42:12;;;;;;;17.70;14.20;;;;;;;5.47;67.78;100094.81;1761474;81;20954;-40
2022/11/09 03:44:40;;;;;;;20.27;14.45;;;;;;;5.48;67.83;100094.27;1761496;81;21535;-40
2022/11/09 03:47:07;;;;;;;19.10;14.15;;;;;;;5.47;67.75;100098.84;1761527;81;21050;-40
2022/11/09 03:49:34;;;;;;;18.65;14.30;;;;;;;5.44;67.55;100094.09;1761612;81;21054;-40
2022/11/09 03:52:01;;;;;;;22.30;14.07;;;;;;;5.42;67.56;100095.52;1761551;81;21147;-40
2022/11/09 03:54:28;;;;;;;18.62;12.95;;;;;;;5.40;67.56;100095.81;1761578;81;21085;-40
2022/11/09 03:56:55;;;;;;;17.80;11.95;;;;;;;5.41;67.50;100096.06;1761506;81;21053;-40
2022/11/09 03:59:22;;;;;;;18.30;13.05;;;;;;;5.47;67.56;100093.47;1758679;81;21034;-40
2022/11/09 04:01:49;;;;;;;19.48;13.50;;;;;;;5.53;67.72;100095.48;1758555;81;21061;-40
2022/11/09 04:04:15;;;;;;;21.60;14.35;;;;;;;5.53;67.64;100092.25;1761243;81;21822;-40
2022/11/09 04:06:43;;;;;;;19.95;14.55;;;;;;;5.50;67.72;100089.39;1761463;81;20959;-40
2022/11/09 04:09:10;;;;;;;21.75;14.45;;;;;;;5.46;67.52;100088.42;1761671;81;20976;-40
2022/11/09 04:11:38;;;;;;;19.05;13.90;;;;;;;5.43;67.83;100092.50;1761296;81;20935;-40
2022/11/09 04:14:05;;;;;;;18.45;13.65;;;;;;;5.40;67.59;100094.47;1761715;81;21500;-40
2022/11/09 04:16:32;;;;;;;19.02;14.58;;;;;;;5.38;67.46;100093.97;1761568;81;21140;-40
2022/11/09 04:18:59;;;;;;;20.25;14.03;;;;;;;5.32;67.58;100093.88;1761539;81;20908;-40
2022/11/09 04:21:26;;;;;;;20.82;14.80;;;;;;;5.26;67.51;100093.75;1761456;81;20951;-40
2022/11/09 04:23:55;;;;;;;18.77;12.47;;;;;;;5.24;67.29;100097.28;1761458;81;21070;-40
2022/11/09 04:26:22;;;;;;;20.17;13.38;;;;;;;5.29;67.28;100099.84;1761449;81;21066;-40
2022/11/09 04:28:50;;;;;;;20.97;14.03;;;;;;;5.33;67.04;100108.88;1761397;81;23166;-40
2022/11/09 04:31:17;;;;;;;20.80;14.43;;;;;;;5.32;67.07;100101.15;1761617;81;21521;-40
2022/11/09 04:33:49;;;;;;;17.73;13.60;;;;;;;5.31;67.09;100105.73;1761401;81;21066;-40
2022/11/09 04:36:17;;;;;;;17.67;14.10;;;;;;;5.30;66.97;100110.05;1735623;81;21002;-40
2022/11/09 04:38:44;;;;;;;17.30;13.08;;;;;;;5.28;66.71;100108.23;1761535;81;21011;-40
2022/11/09 04:41:11;;;;;;;19.35;13.22;;;;;;;5.24;66.66;100108.03;1761419;81;21135;-40
2022/11/09 04:43:38;;;;;;;18.40;14.10;;;;;;;5.21;66.60;100116.72;1761280;81;21511;-40
2022/11/09 04:46:05;;;;;;;16.37;13.88;;;;;;;5.18;66.64;100109.28;1761583;81;21638;-40
2022/11/09 04:48:33;;;;;;;18.25;13.32;;;;;;;5.14;66.66;100116.33;1761820;81;21647;-40
2022/11/09 04:51:12;;;;;;;17.42;13.80;;;;;;;5.10;66.56;100119.39;1761737;81;21026;-40
2022/11/09 04:53:38;;;;;;;18.42;14.70;;;;;;;5.06;66.46;100119.77;1761494;81;21130;-40
2022/11/09 04:56:07;;;;;;;19.55;14.10;;;;;;;5.00;66.53;100119.63;1761366;81;20959;-40
2022/11/09 04:58:33;;;;;;;18.40;13.28;;;;;;;4.99;66.45;100122.06;1761350;81;20916;-40
2022/11/09 05:01:07;;;;;;;17.87;12.03;;;;;;;5.03;66.41;100121.72;1761575;81;21058;-40
2022/11/09 05:03:34;;;;;;;19.17;12.95;;;;;;;5.08;66.63;100121.61;1761541;81;21063;-40
2022/11/09 05:06:30;;;;;;;18.73;13.08;;;;;;;5.10;66.62;100128.80;1761494;81;21864;-40
2022/11/09 05:08:30;;;;;;;16.73;13.03;;;;;;;5.11;66.47;100133.08;1757477;81;21027;-40
2022/11/09 05:10:57;;;;;;;19.05;13.43;;;;;;;5.08;66.24;100136.39;1761491;81;21010;-41
2022/11/09 05:13:24;;;;;;;20.85;14.13;;;;;;;5.05;66.20;100141.01;1761584;81;20947;-40
2022/11/09 05:15:51;;;;;;;18.62;14.78;;;;;;;5.04;66.20;100148.81;1761572;81;21016;-41
2022/11/09 05:18:18;;;;;;;20.30;14.00;;;;;;;5.01;66.12;100146.75;1761553;81;21249;-40
2022/11/09 05:20:45;;;;;;;17.85;13.53;;;;;;;4.99;66.14;100151.61;1761496;81;20970;-40
2022/11/09 05:25:57;;;;;;;21.00;13.83;;;;;;;4.92;66.07;100157.42;1761458;81;20999;-40
2022/11/09 05:28:24;;;;;;;20.27;14.40;;;;;;;4.86;66.62;100166.69;1761597;81;21011;-40
2022/11/09 05:30:52;;;;;;;17.12;13.53;;;;;;;4.87;66.71;100166.94;1761380;81;21144;-40
2022/11/09 05:33:18;;;;;;;16.15;13.58;;;;;;;4.94;66.65;100177.28;1761318;81;21486;-40
2022/11/09 05:35:45;;;;;;;19.85;14.68;;;;;;;5.01;66.63;100171.73;1761557;81;21738;-40
2022/11/09 05:38:12;;;;;;;21.05;15.35;;;;;;;5.04;66.73;100169.77;1761438;81;21063;-40
2022/11/09 05:40:40;;;;;;;21.15;14.68;;;;;;;5.08;66.82;100174.02;1761518;81;21050;-40
2022/11/09 05:43:07;;;;;;;22.15;15.13;;;;;;;5.11;66.80;100170.70;1761620;81;21149;-40
2022/11/09 05:45:35;;;;;;;21.42;14.65;;;;;;;5.13;66.95;100168.53;1761478;81;20939;-41
2022/11/09 05:48:03;;;;;;;19.00;14.40;;;;;;;5.17;67.26;100178.91;1761239;81;20943;-41
2022/11/09 05:50:30;;;;;;;19.48;15.03;;;;;;;5.19;67.29;100177.50;1761741;81;20943;-40
2022/11/09 05:53:00;;;;;;;20.65;15.40;;;;;;;5.22;67.48;100186.86;1759047;81;21079;-40
2022/11/09 05:55:27;;;;;;;22.77;15.38;;;;;;;5.24;67.73;100187.34;1761852;81;21217;-41
2022/11/09 05:57:54;;;;;;;21.68;14.93;;;;;;;5.29;68.01;100193.94;1761718;81;20959;-41
2022/11/09 06:00:21;;;;;;;18.95;14.78;;;;;;;5.39;68.10;100189.67;1764605;81;21021;-40
2022/11/09 06:02:48;;;;;;;20.17;14.83;;;;;;;5.50;68.32;100191.59;1764272;81;21585;-40
2022/11/09 06:05:16;;;;;;;21.97;16.70;;;;;;;5.57;68.78;100202.15;1764644;81;21577;-41
2022/11/09 06:07:43;;;;;;;20.92;14.73;;;;;;;5.64;69.19;100198.50;1764444;81;21284;-40
2022/11/09 06:10:11;;;;;;;23.73;16.30;;;;;;;5.73;69.25;100203.13;1764544;81;21043;-40
2022/11/09 06:12:37;;;;;;;19.32;15.68;;;;;;;5.80;69.35;100205.66;1764879;81;20939;-40
2022/11/09 06:15:06;;;;;;;21.07;14.87;;;;;;;5.87;69.57;100199.84;1764508;81;21512;-41
2022/11/09 06:17:33;;;;;;;14.28;10.90;;;;;;;5.94;69.65;100209.64;1764959;81;20960;-40
2022/11/09 06:20:00;;;;;;;19.15;15.30;;;;;;;6.05;69.63;100209.64;1764656;81;21560;-41
2022/11/09 06:22:27;;;;;;;22.48;15.60;;;;;;;6.16;69.77;100206.91;1764468;81;21512;-40
2022/11/09 06:24:54;;;;;;;23.07;16.62;;;;;;;6.22;69.90;100210.27;1764661;81;20940;-41
2022/11/09 06:27:21;;;;;;;20.37;16.07;;;;;;;6.24;70.10;100211.55;1764682;81;20920;-41
2022/11/09 06:29:48;;;;;;;21.12;15.95;;;;;;;6.27;70.21;100214.97;1764575;81;21075;-41
2022/11/09 06:32:15;;;;;;;21.15;16.45;;;;;;;6.30;70.32;100214.88;1764784;81;21220;-41
2022/11/09 06:34:47;;;;;;;21.45;16.07;;;;;;;6.35;70.38;100219.59;1764429;81;21473;-40
2022/11/09 06:37:12;;;;;;;21.75;15.08;;;;;;;6.44;70.34;100219.06;1764429;81;21836;-40
2022/11/09 06:39:41;;;;;;;20.55;15.93;;;;;;;6.53;70.33;100221.23;1764610;81;20980;-40
2022/11/09 06:42:09;;;;;;;23.07;15.63;;;;;;;6.63;70.35;100217.50;1764430;81;21536;-40
2022/11/09 06:44:36;;;;;;;23.25;17.57;;;;;;;6.70;70.52;100218.38;1764664;81;21130;-41
2022/11/09 06:47:03;;;;;;;21.77;17.60;;;;;;;6.75;70.69;100212.30;1764379;81;20959;-40
2022/11/09 06:49:30;;;;;;;22.48;17.50;;;;;;;6.81;70.88;100207.01;1764664;81;21042;-41
2022/11/09 06:51:57;;;;;;;25.92;18.25;;;;;;;6.86;70.96;100209.55;1764684;81;21504;-41
2022/11/09 06:54:24;;;;;;;23.85;17.85;;;;;;;6.87;71.22;100206.31;1764560;81;21046;-40
2022/11/09 06:56:54;;;;;;;21.80;16.50;;;;;;;6.88;71.36;100210.02;1764595;81;21152;-41
2022/11/09 06:59:21;;;;;;;24.20;17.62;;;;;;;6.94;71.53;100207.42;1762705;81;21006;-41
2022/11/09 07:01:50;;;;;;;25.08;18.50;;;;;;;7.05;71.76;100202.53;1761713;81;21000;-41
2022/11/09 07:04:17;;;;;;;24.37;17.48;;;;;;;7.14;71.83;100206.03;1761658;81;21510;-40
2022/11/09 07:06:43;;;;;;;23.77;18.80;;;;;;;7.19;71.90;100209.13;1761434;81;21026;-41
2022/11/09 07:09:11;;;;;;;27.15;19.45;;;;;;;7.25;72.02;100207.31;1761723;81;21290;-41
2022/11/09 07:11:38;;;;;;;26.70;19.17;;;;;;;7.31;72.05;100206.03;1761426;81;21590;-41
2022/11/09 07:14:05;;;;;;;26.02;19.17;;;;;;;7.42;72.08;100207.31;1761594;81;20952;-41
2022/11/09 07:16:32;;;;;;;25.77;18.05;;;;;;;7.60;71.97;100205.39;1761541;81;20912;-41
2022/11/09 07:18:59;;;;;;;25.62;19.00;;;;;;;7.75;71.75;100205.45;1761678;81;21496;-41
2022/11/09 07:21:26;;;;;;;24.00;19.55;;;;;;;7.84;71.86;100208.96;1761493;81;21253;-41
2022/11/09 07:23:54;;;;;;;27.25;20.08;;;;;;;8.00;71.81;100218.12;1761459;81;20941;-41
2022/11/09 07:26:21;;;;;;;26.42;20.82;;;;;;;8.11;71.45;100212.63;1761457;81;21005;-41
2022/11/09 07:28:49;;;;;;;27.42;22.35;;;;;;;8.23;71.41;100212.73;1761465;81;20924;-40
2022/11/09 07:31:16;;;;;;;28.05;20.80;;;;;;;8.38;71.29;100217.41;1761727;81;21504;-41
2022/11/09 07:33:43;;;;;;;24.47;19.23;;;;;;;8.52;71.19;100213.37;1761435;81;21128;-41
2022/11/09 07:36:10;;;;;;;25.70;19.82;;;;;;;8.76;70.84;100211.45;1761509;81;20991;-41
2022/11/09 07:38:38;;;;;;;26.52;20.40;;;;;;;8.97;70.64;100208.21;1761584;81;21012;-41
2022/11/09 07:41:05;;;;;;;25.80;20.68;;;;;;;9.20;70.03;100210.63;1761534;81;21027;-41
2022/11/09 07:43:33;;;;;;;25.40;20.68;;;;;;;9.32;69.72;100209.33;1761652;81;20955;-41
2022/11/09 07:46:04;;;;;;;26.60;22.13;;;;;;;9.47;69.65;100212.80;1761609;81;21156;-41
2022/11/09 07:48:31;;;;;;;29.98;21.77;;;;;;;9.60;69.07;100211.72;1761811;81;21056;-41
2022/11/09 07:51:01;;;;;;;26.68;20.27;;;;;;;9.68;68.64;100208.73;1761627;81;21481;-41
2022/11/09 07:53:28;;;;;;;26.97;19.82;;;;;;;9.81;68.55;100212.50;1761708;81;21023;-41
2022/11/09 07:55:59;;;;;;;26.77;22.15;;;;;;;9.98;68.26;100209.60;1761747;81;21599;-41
2022/11/09 07:58:27;;;;;;;25.40;21.05;;;;;;;10.18;67.52;100214.77;1761965;81;21848;-41
2022/11/09 08:00:54;;;;;;;34.25;23.62;;;;;;;10.27;67.08;100211.39;1764421;81;21043;-41
2022/11/09 08:03:21;;;;;;;29.98;22.87;;;;;;;10.36;65.83;100203.95;1764634;81;20971;-41
2022/11/09 08:05:49;;;;;;;27.87;22.87;;;;;;;10.43;65.80;100204.76;1764311;81;20924;-41
2022/11/09 08:08:17;;;;;;;28.27;22.25;;;;;;;10.49;65.83;100208.84;1764579;81;20978;-41
2022/11/09 08:10:50;;;;;;;28.00;22.93;;;;;;;10.61;65.68;100208.83;1764530;81;21145;-41
2022/11/09 08:13:15;;;;;;;30.43;23.87;;;;;;;10.74;65.17;100214.50;1764401;81;21482;-41
2022/11/09 08:15:43;;;;;;;28.35;21.62;;;;;;;10.86;64.75;100210.41;1764424;81;20950;-41
2022/11/09 08:18:18;;;;;;;29.07;21.75;;;;;;;10.94;64.20;100209.29;1764592;81;20920;-41
2022/11/09 08:20:46;;;;;;;26.15;20.05;;;;;;;11.06;64.25;100207.91;1764533;81;21027;-41
2022/11/09 08:23:14;;;;;;;24.57;19.45;;;;;;;11.15;63.06;100211.28;1764545;81;23214;-41
2022/11/09 08:25:42;;;;;;;27.65;20.88;;;;;;;11.20;63.13;100212.40;1764661;81;20928;-41
2022/11/09 08:28:09;;;;;;;24.72;19.67;;;;;;;11.32;63.15;100201.53;1764589;81;20966;-41
2022/11/09 08:30:37;;;;;;;27.17;20.72;;;;;;;11.49;63.23;100205.31;1764520;81;20958;-41
2022/11/09 08:33:04;;;;;;;26.02;20.40;;;;;;;11.66;62.73;100200.96;1764541;81;21015;-41
2022/11/09 08:35:32;;;;;;;25.77;20.50;;;;;;;11.83;62.61;100205.31;1764472;81;21136;-41
2022/11/09 08:38:02;;;;;;;25.27;20.17;;;;;;;11.98;62.04;100207.28;1764361;81;21486;-41
2022/11/09 08:40:31;;;;;;;25.70;18.05;;;;;;;12.09;61.48;100204.85;1764668;81;21553;-41
2022/11/09 08:43:04;;;;;;;23.30;18.40;;;;;;;12.18;61.11;100199.47;1764396;81;21592;-41
2022/11/09 08:45:35;;;;;;;21.45;18.25;;;;;;;12.30;60.79;100198.58;1764447;81;21556;-41
2022/11/09 08:48:03;;;;;;;24.07;19.95;;;;;;;12.42;59.71;100203.16;1764698;81;21576;-41
2022/11/09 08:50:32;;;;;;;21.27;17.40;;;;;;;12.42;59.21;100195.80;1764607;81;21003;-41
2022/11/09 08:53:00;;;;;;;21.00;17.75;;;;;;;12.45;59.97;100199.16;1764388;81;20928;-41
2022/11/09 08:55:27;;;;;;;22.45;15.60;;;;;;;12.53;58.20;100203.66;1764827;81;21015;-41
2022/11/09 08:57:56;;;;;;;17.40;13.85;;;;;;;12.60;58.57;100203.02;1764590;81;21007;-41
2022/11/09 09:00:24;;;;;;;17.73;14.03;;;;;;;12.62;57.31;100200.17;1762317;81;21227;-41
2022/11/09 09:02:51;;;;;;;19.05;14.05;;;;;;;12.63;57.71;100196.89;1761362;81;20912;-41
2022/11/09 09:05:19;;;;;;;16.32;13.65;;;;;;;12.67;57.68;100199.69;1761507;81;20963;-41
2022/11/09 09:07:46;;;;;;;19.07;14.05;;;;;;;12.73;57.12;100199.05;1761390;81;21656;-41
2022/11/09 09:10:14;;;;;;;18.12;13.25;;;;;;;12.75;57.08;100189.97;1761614;81;21051;-41
2022/11/09 09:12:41;;;;;;;17.85;13.25;;;;;;;12.79;56.96;100193.56;1761731;81;21859;-41
2022/11/09 09:15:10;;;;;;;17.37;12.75;;;;;;;12.82;56.73;100194.80;1761505;81;21022;-41
2022/11/09 09:17:38;;;;;;;15.50;11.90;;;;;;;12.82;56.08;100179.27;1761363;81;21556;-41
2022/11/09 09:20:06;;;;;;;15.53;12.45;;;;;;;12.84;56.48;100181.61;1761502;81;21027;-41
2022/11/09 09:22:34;;;;;;;18.90;14.03;;;;;;;12.95;57.13;100190.25;1761604;81;20975;-41
2022/11/09 09:25:02;;;;;;;16.67;13.50;;;;;;;13.10;55.65;100181.82;1761489;81;21243;-41
2022/11/09 09:27:29;;;;;;;18.60;14.40;;;;;;;13.12;55.55;100182.27;1761540;81;21356;-41
2022/11/09 09:29:56;;;;;;;19.40;14.35;;;;;;;13.15;55.92;100177.49;1761458;81;21068;-41
2022/11/09 09:32:23;;;;;;;20.35;14.78;;;;;;;13.21;55.80;100182.87;1761398;81;21622;-41
2022/11/09 09:34:50;;;;;;;20.82;17.05;;;;;;;13.30;55.66;100179.37;1761373;81;21003;-41
2022/11/09 09:37:18;;;;;;;18.40;14.18;;;;;;;13.41;56.12;100173.55;1761620;81;21248;-41
2022/11/09 09:39:44;;;;;;;22.27;18.07;;;;;;;13.57;55.94;100181.66;1761440;81;21015;-41
2022/11/09 09:42:19;;;;;;;16.70;13.65;;;;;;;13.70;55.30;100174.14;1761519;81;20984;-41
2022/11/09 09:45:03;;;;;;;17.57;14.33;;;;;;;13.79;55.17;100173.34;1761227;81;21298;-41
2022/11/09 09:48:15;;;;;;;15.55;12.25;;;;;;;13.91;54.91;100171.22;1761149;81;21074;-41
2022/11/09 09:50:48;;;;;;;18.00;12.82;;;;;;;14.03;54.81;100166.77;1759750;81;21261;-41
2022/11/09 09:53:35;;;;;;;16.17;11.57;;;;;;;14.17;53.68;100163.70;1761614;81;21528;-41
2022/11/09 09:56:24;;;;;;;17.25;12.20;;;;;;;14.26;53.42;100165.61;1761472;81;20896;-41
2022/11/09 09:58:56;;;;;;;14.73;11.60;;;;;;;14.31;52.95;100165.87;1760815;81;21645;-42
2022/11/09 10:01:23;;;;;;;15.03;12.07;;;;;;;14.30;52.78;100155.55;1728034;83;21572;-41
2022/11/09 10:04:43;;;;;;;15.13;11.20;;;;;;;14.45;52.73;100160.69;1775021;79;22485;-40
2022/11/09 10:07:49;;;;;;;14.60;11.45;;;;;;;14.53;52.57;100162.36;1746478;82;20915;-41
2022/11/09 10:10:44;;;;;;;13.65;10.82;;;;;;;14.73;52.48;100163.05;1746272;82;23176;-41
2022/11/09 10:13:53;;;;;;;13.03;9.85;;;;;;;14.99;51.37;100158.96;1744931;82;20967;-41
2022/11/09 10:16:49;;;;;;;14.18;9.80;;;;;;;15.18;50.30;100161.56;1749610;81;21486;-41
2022/11/09 10:19:35;;;;;;;11.95;9.15;;;;;;;15.27;49.68;100157.75;1757187;81;20949;-41
2022/11/09 10:22:16;;;;;;;16.37;9.98;;;;;;;15.30;50.29;100145.49;1757156;81;20993;-41
2022/11/09 10:25:08;;;;;;;12.55;9.10;;;;;;;15.45;48.59;100142.35;1756878;81;21149;-41
2022/11/09 10:27:39;;;;;;;20.52;14.03;;;;;;;15.45;49.12;100145.08;1751281;81;21008;-41
2022/11/09 10:30:18;;;;;;;16.20;9.48;;;;;;;15.50;49.41;100138.71;1755912;81;20964;-41
2022/11/09 10:32:51;;;;;;;11.08;8.78;;;;;;;15.58;48.84;100143.72;1751279;81;21000;-41
2022/11/09 10:35:33;;;;;;;9.20;7.20;;;;;;;15.63;48.92;100137.34;1757230;81;20941;-41
2022/11/09 10:38:00;;;;;;;12.68;7.92;;;;;;;15.81;48.28;100132.05;1757227;81;21189;-41
2022/11/09 10:40:45;;;;;;;11.35;7.45;;;;;;;16.07;47.91;100130.53;1757043;81;21478;-41
2022/11/09 10:43:30;;;;;;;12.18;7.47;;;;;;;16.32;47.62;100122.53;1757149;81;21023;-41
2022/11/09 10:46:20;;;;;;;10.88;6.80;;;;;;;16.52;45.99;100129.91;1757101;81;20976;-41
2022/11/09 10:49:19;;;;;;;10.38;6.92;;;;;;;16.56;45.93;100125.24;1757104;81;20984;-41
2022/11/09 10:52:09;;;;;;;10.63;6.37;;;;;;;16.59;45.98;100124.53;1757093;81;21126;-41
2022/11/09 10:54:57;;;;;;;8.95;5.92;;;;;;;16.64;45.27;100120.07;1757161;81;20956;-41
2022/11/09 10:58:00;;;;;;;8.83;5.35;;;;;;;16.75;44.69;100121.52;1751767;81;20949;-41
2022/11/09 11:01:02;;;;;;;9.23;5.70;;;;;;;16.84;44.59;100115.89;1751305;81;21035;-42
2022/11/09 11:03:51;;;;;;;10.60;6.97;;;;;;;16.94;45.04;100115.75;1754538;81;21004;-42
2022/11/09 11:06:36;;;;;;;9.55;7.33;;;;;;;17.13;44.50;100114.08;1752488;81;21127;-42
2022/11/09 11:09:22;;;;;;;9.83;6.87;;;;;;;17.30;43.76;100119.41;1752207;81;20934;-42
2022/11/09 11:12:19;;;;;;;8.53;6.22;;;;;;;17.44;43.38;100115.35;1752287;81;20993;-42
2022/11/09 11:15:29;;;;;;;8.93;5.92;;;;;;;17.59;43.09;100108.77;1746052;81;21011;-42
2022/11/09 11:18:23;;;;;;;7.95;5.55;;;;;;;17.65;43.00;100107.22;1751642;81;21008;-41
2022/11/09 11:21:18;;;;;;;9.78;6.75;;;;;;;17.69;43.14;100106.64;1751755;81;21928;-42
2022/11/09 11:24:19;;;;;;;10.25;7.12;;;;;;;17.92;42.76;100104.11;1751646;81;20906;-42
2022/11/09 11:27:15;;;;;;;9.35;5.83;;;;;;;18.10;41.84;100100.23;1751705;82;21436;-42
2022/11/09 11:30:30;;;;;;;8.93;5.90;;;;;;;18.25;41.56;100099.61;1751652;81;21028;-42
2022/11/09 11:33:17;;;;;;;9.23;6.10;;;;;;;18.33;41.29;100102.56;1751661;82;21068;-42
2022/11/09 11:36:28;;;;;;;9.65;6.00;;;;;;;18.24;41.08;100103.56;1745940;82;21227;-42
2022/11/09 11:40:00;;;;;;;16.50;11.70;;;;;;;18.20;41.45;100106.89;1751565;82;20973;-42